Time,TemperatureF,DewpointF,PressureIn,WindDirection,WindDirectionDegrees,WindSpeedMPH,WindSpeedGustMPH,Humidity,HourlyPrecipIn,Conditions,Clouds,dailyrainin,SolarRadiationWatts/m^2,SoftwareType,DateUTC
2013-03-19 00:12:00,31.0,22.0,-100.00,WSW,256,2.0,4.0,68,-99.99,,,0.00,0.120000,,2013-03-19 07:12:00,
2013-03-19 01:12:00,28.0,20.0,-100.00,SE,139,4.0,5.0,70,-99.99,,,0.00,0.120000,,2013-03-19 08:12:00,
2013-03-19 02:12:00,29.0,21.0,-100.00,SE,135,4.0,6.0,71,-99.99,,,0.00,0.120000,,2013-03-19 09:12:00,
2013-03-19 03:12:00,29.0,21.0,-100.00,SE,126,4.0,4.0,71,-99.99,,,0.00,0.120000,,2013-03-19 10:12:00,
2013-03-19 04:12:00,28.0,20.0,-100.00,SE,136,3.0,5.0,73,-99.99,,,0.00,0.120000,,2013-03-19 11:12:00,
2013-03-19 05:12:00,27.0,20.0,-100.00,South,175,2.0,3.0,74,-99.99,,,0.00,0.120000,,2013-03-19 12:12:00,
2013-03-19 06:12:00,26.0,20.0,-100.00,SE,138,3.0,4.0,77,-99.99,,,0.00,0.120000,,2013-03-19 13:12:00,
2013-03-19 07:12:00,28.0,22.0,-100.00,SE,137,3.0,4.0,75,-99.99,,,0.00,0.120000,,2013-03-19 14:12:00,
2013-03-19 08:12:00,27.0,20.0,-100.00,SE,146,4.0,4.0,75,-99.99,,,0.00,2.090000,,2013-03-19 15:12:00,
2013-03-19 09:13:00,30.0,23.0,-100.00,SSE,165,2.0,3.0,74,-99.99,,,0.00,63.459999,,2013-03-19 16:13:00,
2013-03-19 10:13:00,34.0,25.0,-100.00,West,266,2.0,4.0,70,-99.99,,,0.00,152.250000,,2013-03-19 17:13:00,
2013-03-19 12:12:00,39.0,25.0,-100.00,North,1,3.0,7.0,56,-99.99,,,0.00,355.750000,,2013-03-19 19:12:00,
2013-03-19 13:12:00,41.0,25.0,-100.00,NNE,17,3.0,7.0,52,-99.99,,,0.00,625.260010,,2013-03-19 20:12:00,
2013-03-19 14:12:00,44.0,25.0,-100.00,North,10,3.0,8.0,47,-99.99,,,0.00,471.040009,,2013-03-19 21:12:00,
2013-03-19 15:12:00,44.0,22.0,-100.00,NNE,13,5.0,9.0,40,-99.99,,,0.00,291.359985,,2013-03-19 22:12:00,
2013-03-19 16:12:00,45.0,21.0,-100.00,North,7,5.0,8.0,38,-99.99,,,0.00,197.690002,,2013-03-19 23:12:00,
2013-03-19 17:12:00,47.0,24.0,-100.00,NNE,31,4.0,7.0,41,-99.99,,,0.00,154.690002,,2013-03-20 00:12:00,
2013-03-19 18:12:00,45.0,27.0,-100.00,NE,47,5.0,8.0,49,-99.99,,,0.00,45.790001,,2013-03-20 01:12:00,
2013-03-19 19:12:00,44.0,29.0,-100.00,NNE,19,3.0,5.0,55,-99.99,,,0.00,38.240002,,2013-03-20 02:12:00,
2013-03-19 20:12:00,42.0,33.0,-100.00,ENE,70,2.0,3.0,69,-99.99,,,0.00,2.320000,,2013-03-20 03:12:00,
2013-03-19 21:12:00,41.0,34.0,-100.00,ESE,105,2.0,4.0,77,-99.99,,,0.00,0.000000,,2013-03-20 04:12:00,
2013-03-19 22:12:00,39.0,34.0,-100.00,NNE,32,2.0,3.0,81,-99.99,,,0.00,0.000000,,2013-03-20 05:12:00,
2013-03-19 23:12:00,38.0,34.0,-100.00,North,350,2.0,7.0,86,-99.99,,,0.00,0.000000,,2013-03-20 06:12:00,